Flight Track Log - Related Links

Times and Time Zones

All times are in EDT time to prevent confusion due to time zone crossing. See the N960DL flight status page for this flight to view local times or setup timezone preferences in your user account.

Time Position Orientation Groundspeed Altitude Reporting Facility
EDT Latitude Longitude Course Direction KTS MPH feet Rate Location/Type
Mon 10:18:01 AM 35.1911 -80.9508 270° West 165 190 1,600  Level Atlanta Center
Mon 10:18:56 AM 35.1411 -80.9503 179° South 209 241 3,100 2,256 Climbing Atlanta Center
Mon 10:19:58 AM 35.0922 -80.9953 217° Southwest 246 283 6,000 2,780 Climbing Atlanta Center
Mon 10:20:00 AM 35.2610 -81.1825 282° West  Level FlightAware Approximate
Mon 10:20:59 AM 35.0942 -81.0789 272° West 257 296 8,800  Level Atlanta Center
Mon 10:21:00 AM 35.2319 -81.2978 242° Southwest  Level FlightAware Approximate
Mon 10:22:00 AM 35.1799 -81.4070 239° Southwest  Level FlightAware Approximate
Mon 10:22:08 AM 35.1153 -81.1797 284° West 286 329 11,300  Level Atlanta Center
Mon 10:23:00 AM 35.1333 -81.5173 270° West  Level FlightAware Approximate
Mon 10:23:08 AM 35.1342 -81.2706 284° West 305 351 13,200  Level Atlanta Center
Mon 10:25:08 AM 35.1203 -81.4919 266° West 332 382 17,600 2,100 Climbing Atlanta Center
Mon 10:26:08 AM 35.0933 -81.6044 254° West 337 388 19,500 1,450 Climbing Atlanta Center
Mon 10:27:08 AM 35.0664 -81.7244 255° West 362 417 20,500 1,000 Climbing Atlanta Center
Mon 10:28:08 AM 35.0336 -81.8700 255° West 381 438 21,500 1,150 Climbing Atlanta Center
Mon 10:29:08 AM 35.0003 -82.0078 254° West 415 478 22,800 1,400 Climbing Atlanta Center
Mon 10:30:08 AM 34.9692 -82.1478 255° West 430 495 24,300 2,600 Climbing Atlanta Center
Mon 10:31:08 AM 34.9397 -82.2703 254° West 437 503 28,000 1,700 Climbing Atlanta Center
Mon 10:32:08 AM 34.9061 -82.4078 253° West 431 496 27,700  Descending Atlanta Center
Mon 10:33:08 AM 34.8744 -82.5450 254° West 426 490 28,000 150 Climbing Atlanta Center
Mon 10:34:08 AM 34.8344 -82.6722 249° West 415 478 28,000  Level Atlanta Center
Mon 10:35:08 AM 34.7647 -82.7872 234° Southwest 414 476 28,000  Level Atlanta Center
Mon 10:36:08 AM 34.6947 -82.8944 232° Southwest 414 476 28,000  Level Atlanta Center
Mon 10:37:08 AM 34.6164 -83.0139 231° Southwest 414 476 28,000 -700 Level Atlanta Center
Mon 10:38:08 AM 34.5483 -83.1233 233° Southwest 414 476 26,600 -1,850 Descending Atlanta Center
Mon 10:39:08 AM 34.4783 -83.2300 231° Southwest 414 476 24,300 -2,400 Descending Atlanta Center
Mon 10:40:08 AM 34.4122 -83.3314 232° Southwest 408 470 21,800 -2,450 Descending Atlanta Center
Mon 10:41:08 AM 34.3500 -83.4325 233° Southwest 391 450 19,400 -2,250 Descending Atlanta Center
Mon 10:42:08 AM 34.2858 -83.5283 231° Southwest 378 435 17,300 -2,106 Descending Atlanta Center
Mon 10:43:39 AM 34.2000 -83.6667 233° Southwest 331 381 14,100 -2,200 Descending Atlanta TRACON
Mon 10:44:08 AM 34.1736 -83.7047 230° Southwest 346 398 12,900 -1,483 Descending Atlanta Center
Mon 10:45:08 AM 34.1236 -83.7778 230° Southwest 335 386 11,900 -450 Descending Atlanta Center
Mon 10:46:08 AM 34.0800 -83.8481 233° Southwest 290 334 12,000 -462 Climbing Atlanta Center
Mon 10:46:39 AM 34.0500 -83.8833 224° Southwest 256 295 11,200 -1,582 Descending Atlanta TRACON
Mon 10:47:39 AM 33.9833 -83.9333 212° Southwest 260 299 9,600 -1,100 Descending Atlanta TRACON
Mon 10:48:39 AM 33.9167 -83.9667 203° Southwest 260 299 9,000 -700 Descending Atlanta TRACON
Mon 10:49:39 AM 33.8500 -83.9833 192° South 265 305 8,200 -674 Descending Atlanta TRACON
Mon 10:50:08 AM 33.8256 -83.9839 181° South 260 299 8,000 -404 Descending Atlanta Center
Mon 10:51:08 AM 33.7461 -83.9914 184° South 260 299 7,600 -1,050 Descending Atlanta Center
Mon 10:52:08 AM 33.6814 -84.0289 206° Southwest 250 288 5,900 -994 Descending Atlanta Center
Mon 10:53:45 AM 33.6500 -84.1333 250° West 199 229 5,000 -755 Descending Atlanta TRACON
Mon 10:54:39 AM 33.6500 -84.1833 270° West 193 222 4,000 -1,111 Descending Atlanta TRACON

Login

Don't have an account? Register now (free) for customized features, flight alerts, and more!